Time;durP1;ratioP1;P1;durP2;ratioP2;P2;SDS_P1;SDS_P2;PMS_P1;PMS_P2;Temp;Humidity;BMP_temperature;BMP_pressure;BME280_temperature;BME280_humidity;BME280_pressure;Samples;Min_cycle;Max_cycle;Signal;HPM_P1;HPM_P2
2023/07/22 00:02:15;;;;;;;16.57;9.67;;;;;;;;;;5074397;28;20249;-58
2023/07/22 00:04:42;;;;;;;9.80;8.80;;;;;;;;;;5074567;28;20199;-59
2023/07/22 00:07:08;;;;;;;9.60;8.30;;;;;;;;;;5074602;28;20757;-58
2023/07/22 00:09:34;;;;;;;9.73;8.73;;;;;;;;;;5074440;28;20191;-59
2023/07/22 00:12:00;;;;;;;10.07;8.30;;;;;;;;;;5074203;28;20538;-58
2023/07/22 00:14:26;;;;;;;9.80;8.27;;;;;;;;;;5074285;28;20658;-59
2023/07/22 00:16:52;;;;;;;12.30;8.13;;;;;;;;;;5074320;28;20199;-58
2023/07/22 00:19:18;;;;;;;10.67;8.67;;;;;;;;;;5074080;28;20199;-58
2023/07/22 00:21:45;;;;;;;9.50;8.47;;;;;;;;;;5074008;28;20231;-59
2023/07/22 00:24:11;;;;;;;11.50;8.40;;;;;;;;;;5074088;28;20227;-58
2023/07/22 00:26:38;;;;;;;10.47;8.80;;;;;;;;;;5074235;28;20222;-58
2023/07/22 00:29:04;;;;;;;13.57;9.00;;;;;;;;;;5074030;28;20191;-58
2023/07/22 00:31:31;;;;;;;10.93;8.97;;;;;;;;;;5074050;28;20198;-58
2023/07/22 00:33:57;;;;;;;11.33;8.73;;;;;;;;;;5073969;28;20210;-59
2023/07/22 00:36:23;;;;;;;10.47;8.57;;;;;;;;;;5073811;28;20191;-58
2023/07/22 00:38:52;;;;;;;11.00;8.47;;;;;;;;;;5073874;28;20654;-59
2023/07/22 00:41:18;;;;;;;14.77;9.80;;;;;;;;;;5073647;28;20223;-58
2023/07/22 00:43:44;;;;;;;13.53;10.63;;;;;;;;;;5072898;28;20266;-59
2023/07/22 00:46:10;;;;;;;12.80;9.13;;;;;;;;;;5073875;28;20728;-58
2023/07/22 00:48:36;;;;;;;13.70;9.07;;;;;;;;;;5073745;28;20286;-59
2023/07/22 00:51:02;;;;;;;9.83;8.03;;;;;;;;;;5073506;28;20237;-58
2023/07/22 00:53:28;;;;;;;14.67;9.23;;;;;;;;;;5073615;28;20210;-58
2023/07/22 00:55:56;;;;;;;13.13;9.70;;;;;;;;;;5073736;28;20242;-59
2023/07/22 00:58:22;;;;;;;15.23;9.10;;;;;;;;;;5073443;28;20214;-58
2023/07/22 01:00:48;;;;;;;17.00;10.10;;;;;;;;;;5073435;28;20192;-58
2023/07/22 01:03:14;;;;;;;11.07;9.23;;;;;;;;;;5073157;28;20223;-58
2023/07/22 01:05:41;;;;;;;12.37;9.47;;;;;;;;;;5073424;28;20212;-58
2023/07/22 01:08:07;;;;;;;13.17;9.10;;;;;;;;;;5073346;28;20210;-57
2023/07/22 01:10:33;;;;;;;11.30;9.13;;;;;;;;;;5073315;28;20249;-58
2023/07/22 01:13:01;;;;;;;17.13;9.20;;;;;;;;;;5073382;28;20274;-58
2023/07/22 01:15:27;;;;;;;15.27;10.00;;;;;;;;;;5073168;28;20640;-57
2023/07/22 01:17:55;;;;;;;12.73;9.40;;;;;;;;;;5073255;28;20201;-58
2023/07/22 01:20:21;;;;;;;10.43;9.13;;;;;;;;;;5072952;28;20252;-58
2023/07/22 01:22:52;;;;;;;10.40;8.37;;;;;;;;;;5072919;28;20228;-58
2023/07/22 01:25:19;;;;;;;13.10;9.40;;;;;;;;;;5072830;28;20214;-58
2023/07/22 01:27:45;;;;;;;12.10;9.40;;;;;;;;;;5072474;28;20196;-58
2023/07/22 01:30:12;;;;;;;15.13;9.50;;;;;;;;;;5071880;28;20200;-58
2023/07/22 01:32:38;;;;;;;12.07;8.87;;;;;;;;;;5072002;28;20529;-58
2023/07/22 01:35:05;;;;;;;17.87;9.67;;;;;;;;;;5071759;28;20222;-58
2023/07/22 01:37:31;;;;;;;11.73;9.00;;;;;;;;;;5071730;28;20253;-58
2023/07/22 01:39:59;;;;;;;12.57;8.90;;;;;;;;;;5071588;28;20256;-58
2023/07/22 01:42:25;;;;;;;11.17;8.37;;;;;;;;;;5071606;28;20615;-58
2023/07/22 01:44:51;;;;;;;12.70;9.40;;;;;;;;;;5071677;28;20199;-58
2023/07/22 01:47:17;;;;;;;15.07;9.30;;;;;;;;;;5072113;28;21037;-58
2023/07/22 01:49:45;;;;;;;14.10;9.40;;;;;;;;;;5072493;28;20199;-58
2023/07/22 01:52:11;;;;;;;11.50;9.63;;;;;;;;;;5072390;28;20230;-58
2023/07/22 01:54:37;;;;;;;13.97;9.57;;;;;;;;;;5072457;28;20230;-58
2023/07/22 01:57:04;;;;;;;14.47;9.53;;;;;;;;;;5072306;28;20219;-58
2023/07/22 01:59:30;;;;;;;12.03;8.70;;;;;;;;;;5072284;28;20203;-58
2023/07/22 02:01:56;;;;;;;12.80;9.30;;;;;;;;;;5072234;28;20219;-58
2023/07/22 02:04:22;;;;;;;13.37;8.80;;;;;;;;;;5072218;28;20264;-58
2023/07/22 02:06:48;;;;;;;15.23;9.57;;;;;;;;;;5072104;28;20221;-58
2023/07/22 02:09:14;;;;;;;18.13;11.10;;;;;;;;;;5071985;28;20199;-58
2023/07/22 02:11:40;;;;;;;14.17;9.63;;;;;;;;;;5072206;28;20195;-58
2023/07/22 02:14:08;;;;;;;17.73;10.13;;;;;;;;;;5072233;28;20547;-58
2023/07/22 02:16:34;;;;;;;12.17;9.23;;;;;;;;;;5071916;28;20294;-58
2023/07/22 02:19:00;;;;;;;10.90;8.03;;;;;;;;;;5071844;28;20192;-58
2023/07/22 02:21:28;;;;;;;13.47;9.73;;;;;;;;;;5071865;28;20559;-58
2023/07/22 02:23:54;;;;;;;17.20;8.77;;;;;;;;;;5071924;28;20207;-58
2023/07/22 02:26:20;;;;;;;12.30;8.43;;;;;;;;;;5071740;28;20266;-58
2023/07/22 02:28:46;;;;;;;13.33;8.63;;;;;;;;;;5071792;28;20554;-58
2023/07/22 02:31:13;;;;;;;11.67;8.70;;;;;;;;;;5071735;28;20204;-58
2023/07/22 02:33:40;;;;;;;12.47;8.60;;;;;;;;;;5071931;28;20227;-58
2023/07/22 02:36:06;;;;;;;14.73;8.57;;;;;;;;;;5071582;28;20199;-58
2023/07/22 02:38:32;;;;;;;13.07;8.70;;;;;;;;;;5071726;28;20204;-58
2023/07/22 02:41:02;;;;;;;12.00;8.90;;;;;;;;;;5071609;28;20195;-58
2023/07/22 02:43:28;;;;;;;13.47;8.60;;;;;;;;;;5071612;28;20228;-58
2023/07/22 02:45:54;;;;;;;14.27;9.57;;;;;;;;;;5071696;28;20200;-58
2023/07/22 02:48:22;;;;;;;14.60;8.20;;;;;;;;;;5071470;28;20549;-58
2023/07/22 02:50:48;;;;;;;10.83;8.70;;;;;;;;;;5071552;28;20432;-58
2023/07/22 02:53:14;;;;;;;11.87;8.00;;;;;;;;;;5071525;28;20192;-58
2023/07/22 02:55:40;;;;;;;13.87;8.60;;;;;;;;;;5071554;28;20200;-58
2023/07/22 02:58:06;;;;;;;15.07;8.70;;;;;;;;;;5071431;28;20200;-58
2023/07/22 03:00:32;;;;;;;12.97;7.73;;;;;;;;;;5071504;28;20745;-58
2023/07/22 03:03:00;;;;;;;11.93;8.80;;;;;;;;;;5071465;28;20257;-58
2023/07/22 03:05:28;;;;;;;14.50;9.10;;;;;;;;;;5071882;28;20231;-57
2023/07/22 03:07:54;;;;;;;12.23;8.27;;;;;;;;;;5077972;28;20203;-57
2023/07/22 03:10:20;;;;;;;10.37;8.23;;;;;;;;;;5078103;28;20207;-58
2023/07/22 03:12:47;;;;;;;15.63;9.30;;;;;;;;;;5077980;28;20236;-58
2023/07/22 03:15:13;;;;;;;13.83;8.97;;;;;;;;;;5077928;28;20199;-58
2023/07/22 03:17:41;;;;;;;14.30;8.90;;;;;;;;;;5078210;28;20249;-58
2023/07/22 03:20:14;;;;;;;11.10;8.30;;;;;;;;;;5077937;28;20603;-58
2023/07/22 03:22:41;;;;;;;13.90;8.63;;;;;;;;;;5077990;28;20254;-58
2023/07/22 03:25:09;;;;;;;14.17;9.60;;;;;;;;;;5077852;28;20577;-57
2023/07/22 03:27:35;;;;;;;13.20;8.70;;;;;;;;;;5077588;28;20203;-58
2023/07/22 03:30:01;;;;;;;14.40;9.43;;;;;;;;;;5076843;28;20528;-57
2023/07/22 03:32:27;;;;;;;15.03;9.13;;;;;;;;;;5077697;28;20215;-58
2023/07/22 03:34:54;;;;;;;15.87;9.83;;;;;;;;;;5077953;28;20200;-57
2023/07/22 03:37:20;;;;;;;19.10;9.97;;;;;;;;;;5077549;28;20607;-58
2023/07/22 03:39:47;;;;;;;14.93;9.67;;;;;;;;;;5077364;28;20199;-58
2023/07/22 03:42:13;;;;;;;15.90;9.47;;;;;;;;;;5077585;28;20314;-58
2023/07/22 03:44:40;;;;;;;16.83;10.40;;;;;;;;;;5077688;28;20323;-57
2023/07/22 03:47:07;;;;;;;16.83;10.27;;;;;;;;;;5077623;28;20199;-57
2023/07/22 03:49:33;;;;;;;16.50;9.67;;;;;;;;;;5077582;28;20846;-57
2023/07/22 03:52:00;;;;;;;18.30;9.67;;;;;;;;;;5077549;28;20293;-57
2023/07/22 03:54:26;;;;;;;15.33;9.67;;;;;;;;;;5077799;28;20286;-57
2023/07/22 03:56:53;;;;;;;14.73;9.87;;;;;;;;;;5077680;28;20374;-57
2023/07/22 03:59:19;;;;;;;13.97;9.23;;;;;;;;;;5077469;28;20678;-57
2023/07/22 04:01:46;;;;;;;12.27;8.77;;;;;;;;;;5077540;28;20223;-57
2023/07/22 04:04:12;;;;;;;15.67;9.23;;;;;;;;;;5077439;28;20203;-58
2023/07/22 04:06:38;;;;;;;14.73;9.40;;;;;;;;;;5077399;28;20727;-58
2023/07/22 04:09:04;;;;;;;15.13;9.10;;;;;;;;;;5077360;28;20290;-58
2023/07/22 04:11:30;;;;;;;18.83;8.60;;;;;;;;;;5077487;28;20194;-58
2023/07/22 04:13:58;;;;;;;14.87;8.83;;;;;;;;;;5077532;28;20195;-58
2023/07/22 04:16:24;;;;;;;14.53;8.57;;;;;;;;;;5077412;28;20286;-58
2023/07/22 04:18:50;;;;;;;17.63;9.53;;;;;;;;;;5073424;28;20279;-58
2023/07/22 04:21:16;;;;;;;19.27;9.93;;;;;;;;;;5073920;28;20742;-58
2023/07/22 04:23:42;;;;;;;16.03;9.57;;;;;;;;;;5074407;28;20199;-58
2023/07/22 04:26:08;;;;;;;14.43;8.77;;;;;;;;;;5074305;28;20201;-58
2023/07/22 04:28:34;;;;;;;12.83;8.37;;;;;;;;;;5074008;28;20603;-58
2023/07/22 04:31:02;;;;;;;16.03;9.63;;;;;;;;;;5073956;28;20211;-57
2023/07/22 04:33:28;;;;;;;14.93;8.97;;;;;;;;;;5073996;28;20204;-58
2023/07/22 04:35:54;;;;;;;13.67;9.50;;;;;;;;;;5073976;28;20638;-59
2023/07/22 04:38:20;;;;;;;16.97;9.17;;;;;;;;;;5073839;28;20199;-58
2023/07/22 04:40:46;;;;;;;13.67;9.00;;;;;;;;;;5073883;28;20218;-58
2023/07/22 04:43:12;;;;;;;15.00;8.77;;;;;;;;;;5073586;28;20243;-58
2023/07/22 04:45:41;;;;;;;18.13;10.23;;;;;;;;;;5073753;28;20650;-58
2023/07/22 04:48:08;;;;;;;15.13;8.70;;;;;;;;;;5073711;28;20223;-59
2023/07/22 04:50:34;;;;;;;11.50;8.40;;;;;;;;;;5073606;28;20753;-58
2023/07/22 04:53:00;;;;;;;14.27;8.90;;;;;;;;;;5073681;28;20282;-59
2023/07/22 04:55:29;;;;;;;15.20;8.37;;;;;;;;;;5073553;28;20196;-58
2023/07/22 04:57:55;;;;;;;16.27;9.27;;;;;;;;;;5073689;28;20674;-58
2023/07/22 05:00:22;;;;;;;16.47;9.30;;;;;;;;;;5073570;28;20252;-59
2023/07/22 05:02:48;;;;;;;11.87;8.43;;;;;;;;;;5073676;28;20353;-58
2023/07/22 05:05:15;;;;;;;15.60;9.50;;;;;;;;;;5073131;28;20298;-59
2023/07/22 05:07:41;;;;;;;16.10;9.30;;;;;;;;;;5073475;28;20200;-58
2023/07/22 05:10:11;;;;;;;14.87;8.53;;;;;;;;;;5073369;28;20314;-58
2023/07/22 05:12:37;;;;;;;15.43;8.43;;;;;;;;;;5073363;28;20203;-58
2023/07/22 05:15:04;;;;;;;17.67;9.27;;;;;;;;;;5073125;28;20195;-58
2023/07/22 05:17:31;;;;;;;13.37;7.97;;;;;;;;;;5072843;28;20254;-58
2023/07/22 05:19:57;;;;;;;13.13;9.47;;;;;;;;;;5073012;28;20213;-58
2023/07/22 05:22:24;;;;;;;13.87;9.10;;;;;;;;;;5072896;28;20264;-57
2023/07/22 05:24:50;;;;;;;12.63;8.47;;;;;;;;;;5073047;28;20237;-58
2023/07/22 05:27:17;;;;;;;16.30;9.67;;;;;;;;;;5072829;28;20192;-58
2023/07/22 05:29:43;;;;;;;15.60;8.60;;;;;;;;;;5072519;28;20294;-58
2023/07/22 05:32:09;;;;;;;15.57;9.17;;;;;;;;;;5072880;28;20282;-58
2023/07/22 05:34:35;;;;;;;13.17;9.00;;;;;;;;;;5072874;28;20215;-59
2023/07/22 05:37:01;;;;;;;14.47;8.60;;;;;;;;;;5072615;28;20204;-57
2023/07/22 05:39:28;;;;;;;12.93;8.77;;;;;;;;;;5072705;28;20565;-59
2023/07/22 05:41:54;;;;;;;15.30;9.20;;;;;;;;;;5072773;28;20211;-59
2023/07/22 05:44:20;;;;;;;13.03;8.53;;;;;;;;;;5072490;28;20236;-59
2023/07/22 05:46:46;;;;;;;12.87;8.90;;;;;;;;;;5072538;28;20639;-59
2023/07/22 05:49:12;;;;;;;13.97;9.37;;;;;;;;;;5072650;28;20206;-59
2023/07/22 05:51:38;;;;;;;16.80;9.37;;;;;;;;;;5072535;28;20196;-58
2023/07/22 05:54:04;;;;;;;13.83;8.93;;;;;;;;;;5072266;28;20573;-58
2023/07/22 05:56:32;;;;;;;10.03;7.50;;;;;;;;;;5072365;28;20204;-57
2023/07/22 05:58:58;;;;;;;12.27;7.90;;;;;;;;;;5072295;28;20200;-58
2023/07/22 06:01:27;;;;;;;13.57;9.13;;;;;;;;;;5072195;28;20290;-57
2023/07/22 06:03:53;;;;;;;11.20;8.63;;;;;;;;;;5071113;28;20573;-57
2023/07/22 06:06:19;;;;;;;14.87;8.30;;;;;;;;;;5071870;28;20285;-59
2023/07/22 06:08:45;;;;;;;15.67;8.17;;;;;;;;;;5072156;28;20206;-59
2023/07/22 06:11:11;;;;;;;14.53;8.17;;;;;;;;;;5072053;28;20199;-59
2023/07/22 06:13:38;;;;;;;12.40;8.00;;;;;;;;;;5072140;28;20661;-60
2023/07/22 06:16:04;;;;;;;13.50;8.60;;;;;;;;;;5071955;28;20230;-58
2023/07/22 06:18:30;;;;;;;11.60;7.47;;;;;;;;;;5071853;28;20681;-60
2023/07/22 06:20:57;;;;;;;10.43;7.73;;;;;;;;;;5071891;28;20195;-59
2023/07/22 06:23:23;;;;;;;13.67;8.67;;;;;;;;;;5071718;28;20258;-59
2023/07/22 06:25:49;;;;;;;10.73;8.30;;;;;;;;;;5071748;28;20203;-60
2023/07/22 06:28:15;;;;;;;11.07;7.70;;;;;;;;;;5071614;28;20195;-60
2023/07/22 06:30:42;;;;;;;11.77;8.67;;;;;;;;;;5071843;28;20199;-60
2023/07/22 06:33:08;;;;;;;11.47;8.10;;;;;;;;;;5071758;28;20188;-59
2023/07/22 06:35:34;;;;;;;11.73;8.37;;;;;;;;;;5071615;28;20230;-60
2023/07/22 06:38:00;;;;;;;15.93;8.10;;;;;;;;;;5071585;28;20619;-60
2023/07/22 06:40:26;;;;;;;14.97;8.00;;;;;;;;;;5071087;28;20203;-60
2023/07/22 06:42:52;;;;;;;14.00;8.03;;;;;;;;;;5071378;28;20236;-60
2023/07/22 06:45:19;;;;;;;12.90;7.67;;;;;;;;;;5071312;28;20286;-60
2023/07/22 06:47:46;;;;;;;11.47;7.57;;;;;;;;;;5071237;28;20564;-60
2023/07/22 06:50:12;;;;;;;13.47;8.27;;;;;;;;;;5071323;28;20221;-60
2023/07/22 06:52:38;;;;;;;13.10;8.23;;;;;;;;;;5071604;28;20563;-60
2023/07/22 06:55:05;;;;;;;9.37;7.93;;;;;;;;;;5071436;28;20204;-60
2023/07/22 06:57:31;;;;;;;12.43;8.50;;;;;;;;;;5071490;28;20249;-60
2023/07/22 06:59:57;;;;;;;11.43;8.07;;;;;;;;;;5071453;28;20180;-59
2023/07/22 07:02:23;;;;;;;11.67;8.07;;;;;;;;;;5071194;28;20279;-59
2023/07/22 07:04:50;;;;;;;11.60;8.10;;;;;;;;;;5071212;28;20219;-59
2023/07/22 07:07:17;;;;;;;15.90;8.43;;;;;;;;;;5071322;28;20187;-59
2023/07/22 07:09:43;;;;;;;11.27;7.80;;;;;;;;;;5071418;28;20574;-59
2023/07/22 07:12:09;;;;;;;10.93;7.80;;;;;;;;;;5071379;28;20316;-59
2023/07/22 07:14:35;;;;;;;10.60;8.03;;;;;;;;;;5071169;28;20707;-59
2023/07/22 07:17:02;;;;;;;12.47;8.30;;;;;;;;;;5070928;28;20245;-59
2023/07/22 07:19:28;;;;;;;9.40;7.10;;;;;;;;;;5071162;28;20204;-59
2023/07/22 07:21:55;;;;;;;13.27;7.73;;;;;;;;;;5071198;28;20218;-60
2023/07/22 07:24:21;;;;;;;11.53;7.30;;;;;;;;;;5071146;28;20254;-59
2023/07/22 07:26:47;;;;;;;13.03;8.27;;;;;;;;;;5071134;28;20195;-59
2023/07/22 07:29:13;;;;;;;12.23;8.10;;;;;;;;;;5071052;28;20199;-59
2023/07/22 07:31:40;;;;;;;11.33;7.27;;;;;;;;;;5071290;28;20188;-59
2023/07/22 07:34:06;;;;;;;10.67;8.33;;;;;;;;;;5071019;28;20245;-59
2023/07/22 07:36:32;;;;;;;10.20;7.90;;;;;;;;;;5071065;28;20199;-59
2023/07/22 07:38:59;;;;;;;9.93;7.70;;;;;;;;;;5071072;28;20203;-58
2023/07/22 07:41:25;;;;;;;11.87;8.10;;;;;;;;;;5070977;28;20211;-59
2023/07/22 07:43:51;;;;;;;9.03;7.00;;;;;;;;;;5070849;28;20281;-59
2023/07/22 07:46:19;;;;;;;11.10;7.90;;;;;;;;;;5070858;28;20200;-59
2023/07/22 07:48:45;;;;;;;9.13;7.60;;;;;;;;;;5070871;28;20200;-58
2023/07/22 07:51:12;;;;;;;10.70;8.20;;;;;;;;;;5070741;28;20195;-58
2023/07/22 07:53:38;;;;;;;11.43;8.07;;;;;;;;;;5073926;28;20647;-59
2023/07/22 07:56:05;;;;;;;12.13;7.93;;;;;;;;;;5074499;28;20241;-58
2023/07/22 07:58:31;;;;;;;10.67;7.40;;;;;;;;;;5074526;28;20721;-59
2023/07/22 08:00:57;;;;;;;12.33;7.90;;;;;;;;;;5074575;28;20295;-59
2023/07/22 08:03:24;;;;;;;11.50;8.17;;;;;;;;;;5074478;28;20230;-59
2023/07/22 08:05:50;;;;;;;9.70;7.33;;;;;;;;;;5074370;28;20253;-59
2023/07/22 08:08:16;;;;;;;9.33;7.07;;;;;;;;;;5074359;28;20203;-59
2023/07/22 08:10:44;;;;;;;9.15;7.35;;;;;;;;;;5074488;28;20196;-59
2023/07/22 08:13:11;;;;;;;9.70;6.93;;;;;;;;;;5074340;28;20629;-59
2023/07/22 08:15:37;;;;;;;9.17;7.47;;;;;;;;;;5074395;28;20207;-59
2023/07/22 08:18:03;;;;;;;16.37;7.20;;;;;;;;;;5074073;28;20253;-59
2023/07/22 08:20:30;;;;;;;9.83;7.47;;;;;;;;;;5074004;28;20279;-59
2023/07/22 08:22:56;;;;;;;9.23;7.37;;;;;;;;;;5074232;28;20227;-59
2023/07/22 08:25:22;;;;;;;9.70;7.00;;;;;;;;;;5074106;28;20208;-58
2023/07/22 08:27:48;;;;;;;9.37;6.87;;;;;;;;;;5074019;28;20192;-59
2023/07/22 08:30:16;;;;;;;9.03;7.23;;;;;;;;;;5073917;28;20195;-59
2023/07/22 08:32:42;;;;;;;8.67;6.87;;;;;;;;;;5074055;28;20204;-59
2023/07/22 08:35:08;;;;;;;9.33;6.23;;;;;;;;;;5073866;28;20660;-59
2023/07/22 08:37:34;;;;;;;8.63;5.90;;;;;;;;;;5073930;28;20204;-59
2023/07/22 08:40:00;;;;;;;9.73;6.53;;;;;;;;;;5073890;28;20292;-59
2023/07/22 08:42:29;;;;;;;8.53;6.60;;;;;;;;;;5073572;28;20252;-58
2023/07/22 08:44:57;;;;;;;8.17;6.40;;;;;;;;;;5073838;28;20652;-59
2023/07/22 08:47:25;;;;;;;10.40;7.07;;;;;;;;;;5073521;28;20214;-59
2023/07/22 08:49:53;;;;;;;7.03;6.30;;;;;;;;;;5073840;28;20251;-59
2023/07/22 08:52:19;;;;;;;11.33;6.67;;;;;;;;;;5073595;28;20216;-59
2023/07/22 08:54:45;;;;;;;7.67;6.10;;;;;;;;;;5073357;28;20203;-59
2023/07/22 08:57:12;;;;;;;8.87;6.50;;;;;;;;;;5073538;28;20201;-59
2023/07/22 08:59:38;;;;;;;9.00;6.33;;;;;;;;;;5073699;28;20196;-59
2023/07/22 09:02:05;;;;;;;7.97;6.83;;;;;;;;;;5073340;28;20227;-59
2023/07/22 09:04:32;;;;;;;9.77;6.00;;;;;;;;;;5072449;28;20297;-59
2023/07/22 09:06:58;;;;;;;8.37;6.17;;;;;;;;;;5073338;28;20252;-59
2023/07/22 09:09:25;;;;;;;8.20;6.47;;;;;;;;;;5073405;28;20205;-58
2023/07/22 09:11:53;;;;;;;9.47;5.83;;;;;;;;;;5073358;28;20204;-58
2023/07/22 09:14:19;;;;;;;8.13;6.23;;;;;;;;;;5073057;28;20247;-58
2023/07/22 09:16:46;;;;;;;8.53;5.97;;;;;;;;;;5073339;28;20536;-58
2023/07/22 09:19:13;;;;;;;8.33;6.17;;;;;;;;;;5073086;28;20209;-58
2023/07/22 09:21:40;;;;;;;8.73;6.17;;;;;;;;;;5073069;28;20571;-58
2023/07/22 09:24:20;;;;;;;8.87;5.80;;;;;;;;;;5072972;28;20208;-58
2023/07/22 09:26:46;;;;;;;10.30;6.30;;;;;;;;;;5072979;28;20208;-58
2023/07/22 09:29:12;;;;;;;8.70;6.67;;;;;;;;;;5072838;28;20292;-58
2023/07/22 09:31:49;;;;;;;8.10;6.57;;;;;;;;;;5073068;28;20201;-58
2023/07/22 09:34:15;;;;;;;8.57;6.13;;;;;;;;;;5072678;28;20206;-58
2023/07/22 09:36:51;;;;;;;6.37;5.43;;;;;;;;;;5073014;28;20201;-58
2023/07/22 09:39:17;;;;;;;7.87;6.17;;;;;;;;;;5072507;28;20252;-58
2023/07/22 09:41:43;;;;;;;7.03;6.30;;;;;;;;;;5072484;28;20692;-58
2023/07/22 09:44:10;;;;;;;8.37;5.70;;;;;;;;;;5072521;28;20252;-58
2023/07/22 09:46:36;;;;;;;7.43;5.77;;;;;;;;;;5072496;28;20218;-58
2023/07/22 09:49:04;;;;;;;7.83;6.23;;;;;;;;;;5072485;28;20697;-58
2023/07/22 09:51:33;;;;;;;8.57;6.87;;;;;;;;;;5072297;28;20212;-58
2023/07/22 09:54:01;;;;;;;6.60;5.93;;;;;;;;;;5072321;28;20284;-59
2023/07/22 09:56:27;;;;;;;8.13;6.53;;;;;;;;;;5072301;28;20217;-59
2023/07/22 09:58:54;;;;;;;10.30;7.87;;;;;;;;;;5072518;28;20294;-59
2023/07/22 10:01:20;;;;;;;8.97;6.50;;;;;;;;;;5072190;28;20223;-59
2023/07/22 10:03:47;;;;;;;6.70;5.73;;;;;;;;;;5072207;28;20245;-58
2023/07/22 10:06:13;;;;;;;8.13;5.80;;;;;;;;;;5072023;28;20268;-58
2023/07/22 10:08:41;;;;;;;6.53;5.23;;;;;;;;;;5072327;28;20202;-58
2023/07/22 10:11:09;;;;;;;7.67;5.53;;;;;;;;;;5071948;28;20203;-58
2023/07/22 10:13:35;;;;;;;8.43;5.97;;;;;;;;;;5071944;28;20218;-58
2023/07/22 10:16:02;;;;;;;6.63;5.93;;;;;;;;;;5070901;28;20576;-58
2023/07/22 10:18:29;;;;;;;6.00;4.73;;;;;;;;;;5071789;28;20249;-60
2023/07/22 10:20:56;;;;;;;8.55;5.90;;;;;;;;;;5071983;28;20207;-58
2023/07/22 10:23:24;;;;;;;6.67;4.80;;;;;;;;;;5071800;28;20225;-58
2023/07/22 10:25:51;;;;;;;7.70;5.37;;;;;;;;;;5072046;28;20222;-58
2023/07/22 10:28:20;;;;;;;15.60;13.57;;;;;;;;;;5071714;28;20200;-58
2023/07/22 10:30:46;;;;;;;7.47;6.43;;;;;;;;;;5071711;28;20250;-58
2023/07/22 10:33:12;;;;;;;6.40;5.40;;;;;;;;;;5071801;28;20207;-58
2023/07/22 10:35:42;;;;;;;6.80;6.10;;;;;;;;;;5071671;28;20657;-58
2023/07/22 10:38:09;;;;;;;5.97;5.40;;;;;;;;;;5071752;28;20218;-58
2023/07/22 10:40:45;;;;;;;13.63;12.10;;;;;;;;;;5071603;28;20203;-58
2023/07/22 10:43:11;;;;;;;10.43;6.17;;;;;;;;;;5071481;28;20238;-58
2023/07/22 10:45:41;;;;;;;8.80;6.80;;;;;;;;;;5071761;28;20192;-58
2023/07/22 10:48:08;;;;;;;5.57;4.97;;;;;;;;;;5071543;28;20208;-58
2023/07/22 10:50:41;;;;;;;8.30;5.57;;;;;;;;;;5071514;28;20199;-59
2023/07/22 10:53:07;;;;;;;5.90;5.30;;;;;;;;;;5071567;28;20241;-59
2023/07/22 10:55:33;;;;;;;10.27;5.47;;;;;;;;;;5071274;28;20773;-59
2023/07/22 10:58:05;;;;;;;5.73;4.80;;;;;;;;;;5071418;28;20222;-59
2023/07/22 11:00:31;;;;;;;4.90;4.37;;;;;;;;;;5071339;28;20633;-58
2023/07/22 11:03:16;;;;;;;4.37;3.97;;;;;;;;;;5071316;28;20584;-58
2023/07/22 11:05:50;;;;;;;5.37;4.87;;;;;;;;;;5071304;28;20298;-58
2023/07/22 11:08:16;;;;;;;5.53;4.60;;;;;;;;;;5071207;28;20211;-59
2023/07/22 11:10:53;;;;;;;5.03;4.63;;;;;;;;;;5071415;28;20199;-59
2023/07/22 11:13:27;;;;;;;6.17;5.60;;;;;;;;;;5071231;28;20191;-58
2023/07/22 11:15:53;;;;;;;6.33;4.87;;;;;;;;;;5071290;28;20764;-59
2023/07/22 11:18:19;;;;;;;5.93;5.30;;;;;;;;;;5071136;28;20291;-58
2023/07/22 11:20:45;;;;;;;5.47;4.97;;;;;;;;;;5071210;28;20227;-58
2023/07/22 11:23:12;;;;;;;5.70;5.20;;;;;;;;;;5071263;28;20254;-58
2023/07/22 11:25:38;;;;;;;5.87;5.20;;;;;;;;;;5071202;28;20666;-59
2023/07/22 11:28:04;;;;;;;6.63;6.00;;;;;;;;;;5073605;28;20303;-58
2023/07/22 11:30:30;;;;;;;5.67;5.17;;;;;;;;;;5075036;28;20203;-58
2023/07/22 11:32:58;;;;;;;5.37;4.80;;;;;;;;;;5075070;28;20561;-58
2023/07/22 11:35:24;;;;;;;5.87;5.33;;;;;;;;;;5075038;28;20205;-59
2023/07/22 11:38:00;;;;;;;5.37;4.70;;;;;;;;;;5074912;28;20646;-58
2023/07/22 11:40:34;;;;;;;5.63;4.90;;;;;;;;;;5075051;28;20199;-58
2023/07/22 11:43:00;;;;;;;5.00;4.50;;;;;;;;;;5074740;28;20227;-58
2023/07/22 11:45:26;;;;;;;6.50;4.70;;;;;;;;;;5074870;28;20210;-58
2023/07/22 11:47:52;;;;;;;4.33;3.93;;;;;;;;;;5074869;28;20208;-59
2023/07/22 11:50:18;;;;;;;5.17;4.13;;;;;;;;;;5074458;28;20559;-58
2023/07/22 11:52:50;;;;;;;4.83;4.30;;;;;;;;;;5074655;28;20277;-58
2023/07/22 11:55:16;;;;;;;4.80;4.30;;;;;;;;;;5074661;28;20222;-59
2023/07/22 11:57:52;;;;;;;5.27;3.80;;;;;;;;;;5074648;28;20231;-58
2023/07/22 12:00:18;;;;;;;4.07;3.50;;;;;;;;;;5074786;28;20199;-58
2023/07/22 12:02:44;;;;;;;6.07;4.50;;;;;;;;;;5074357;28;20563;-58
2023/07/22 12:05:10;;;;;;;6.90;4.20;;;;;;;;;;5074390;28;20231;-66
2023/07/22 12:07:37;;;;;;;4.17;3.77;;;;;;;;;;5074297;28;20192;-58
2023/07/22 12:10:05;;;;;;;4.57;4.17;;;;;;;;;;5074278;28;20192;-59
2023/07/22 12:12:34;;;;;;;6.20;4.30;;;;;;;;;;5074190;28;20544;-58
2023/07/22 12:15:04;;;;;;;5.33;4.23;;;;;;;;;;5074288;28;20301;-58
2023/07/22 12:17:30;;;;;;;6.40;4.80;;;;;;;;;;5074027;28;20227;-58
2023/07/22 12:19:56;;;;;;;6.90;4.70;;;;;;;;;;5074361;28;20235;-59
2023/07/22 12:22:22;;;;;;;5.80;5.00;;;;;;;;;;5074049;28;20282;-58
2023/07/22 12:24:48;;;;;;;6.63;5.23;;;;;;;;;;5074033;28;20199;-58
2023/07/22 12:27:14;;;;;;;5.20;4.70;;;;;;;;;;5073932;28;20712;-59
2023/07/22 12:29:40;;;;;;;6.23;5.30;;;;;;;;;;5074168;28;20199;-58
2023/07/22 12:32:09;;;;;;;12.73;5.10;;;;;;;;;;5073959;28;20195;-58
2023/07/22 12:34:36;;;;;;;7.07;5.40;;;;;;;;;;5073738;28;20207;-64
2023/07/22 12:37:02;;;;;;;6.70;5.80;;;;;;;;;;5073796;28;20589;-59
2023/07/22 12:39:29;;;;;;;7.60;5.17;;;;;;;;;;5072938;28;20219;-58
2023/07/22 12:41:55;;;;;;;6.97;4.70;;;;;;;;;;5073986;28;20207;-59
2023/07/22 12:44:21;;;;;;;7.47;5.20;;;;;;;;;;5073570;28;20642;-59
2023/07/22 12:46:47;;;;;;;5.60;4.97;;;;;;;;;;5073862;28;20207;-59
2023/07/22 12:49:14;;;;;;;7.70;4.47;;;;;;;;;;5073682;28;20200;-58
2023/07/22 12:51:40;;;;;;;5.27;4.43;;;;;;;;;;5073682;28;20226;-58
2023/07/22 12:54:06;;;;;;;6.77;4.30;;;;;;;;;;5073789;28;20697;-58
2023/07/22 12:56:32;;;;;;;4.20;3.80;;;;;;;;;;5073474;28;20196;-58
2023/07/22 12:58:58;;;;;;;6.80;4.73;;;;;;;;;;5073469;28;20611;-59
2023/07/22 13:01:24;;;;;;;4.90;3.90;;;;;;;;;;5073540;28;20249;-58
2023/07/22 13:03:50;;;;;;;5.20;4.27;;;;;;;;;;5073398;28;20211;-58
2023/07/22 13:06:17;;;;;;;5.67;4.30;;;;;;;;;;5073158;28;20284;-58
2023/07/22 13:08:43;;;;;;;5.07;4.50;;;;;;;;;;5073363;28;20684;-58
2023/07/22 13:11:09;;;;;;;4.67;4.13;;;;;;;;;;5073431;28;20298;-58
2023/07/22 13:13:35;;;;;;;5.37;4.27;;;;;;;;;;5073160;28;20313;-59
2023/07/22 13:16:01;;;;;;;4.53;3.80;;;;;;;;;;5073213;28;20195;-58
2023/07/22 13:18:27;;;;;;;6.00;4.40;;;;;;;;;;5073002;28;20207;-58
2023/07/22 13:20:53;;;;;;;8.13;4.80;;;;;;;;;;5073082;28;20207;-59
2023/07/22 13:23:21;;;;;;;6.70;5.40;;;;;;;;;;5072859;28;20215;-59
2023/07/22 13:25:47;;;;;;;5.37;4.87;;;;;;;;;;5072987;28;20290;-59
2023/07/22 13:28:13;;;;;;;6.10;5.50;;;;;;;;;;5072914;28;20717;-58
2023/07/22 13:30:39;;;;;;;6.90;5.70;;;;;;;;;;5073057;28;20219;-59
2023/07/22 13:33:05;;;;;;;7.17;5.77;;;;;;;;;;5072844;28;20198;-58
2023/07/22 13:35:31;;;;;;;5.03;4.63;;;;;;;;;;5072706;28;20267;-59
2023/07/22 13:37:57;;;;;;;5.73;5.10;;;;;;;;;;5072780;28;20195;-59
2023/07/22 13:40:24;;;;;;;6.30;5.70;;;;;;;;;;5072708;28;20192;-58
2023/07/22 13:42:50;;;;;;;7.40;5.47;;;;;;;;;;5072424;28;20334;-58
2023/07/22 13:45:16;;;;;;;5.70;5.10;;;;;;;;;;5072560;28;20287;-58
2023/07/22 13:47:42;;;;;;;5.10;4.60;;;;;;;;;;5072719;28;20583;-59
2023/07/22 13:50:09;;;;;;;5.60;5.10;;;;;;;;;;5072256;28;20214;-59
2023/07/22 13:52:35;;;;;;;7.27;5.93;;;;;;;;;;5072432;28;20286;-59
2023/07/22 13:55:01;;;;;;;8.73;6.27;;;;;;;;;;5072420;28;20282;-59
2023/07/22 13:57:29;;;;;;;6.67;5.97;;;;;;;;;;5072348;28;20230;-60
2023/07/22 13:59:55;;;;;;;7.83;5.30;;;;;;;;;;5072497;28;20204;-59
2023/07/22 14:02:21;;;;;;;8.40;5.97;;;;;;;;;;5072130;28;20567;-59
2023/07/22 14:04:47;;;;;;;6.83;6.23;;;;;;;;;;5072093;28;20219;-58
2023/07/22 14:07:13;;;;;;;6.20;5.57;;;;;;;;;;5072196;28;20207;-58
2023/07/22 14:09:39;;;;;;;7.10;5.63;;;;;;;;;;5072297;28;20202;-58
2023/07/22 14:12:05;;;;;;;6.73;5.40;;;;;;;;;;5072102;28;20196;-58
2023/07/22 14:14:33;;;;;;;6.63;5.20;;;;;;;;;;5071886;28;20211;-58
2023/07/22 14:16:59;;;;;;;6.07;5.47;;;;;;;;;;5072002;28;20234;-58
2023/07/22 14:19:25;;;;;;;6.43;5.70;;;;;;;;;;5071972;28;20195;-58
2023/07/22 14:21:51;;;;;;;6.17;5.17;;;;;;;;;;5071942;28;20206;-58
2023/07/22 14:24:17;;;;;;;6.33;5.00;;;;;;;;;;5071739;28;20228;-58
2023/07/22 14:26:43;;;;;;;5.90;5.10;;;;;;;;;;5071865;28;20203;-59
2023/07/22 14:29:09;;;;;;;6.63;5.07;;;;;;;;;;5071945;28;20196;-60
2023/07/22 14:31:36;;;;;;;5.70;5.13;;;;;;;;;;5071783;28;20278;-59
2023/07/22 14:34:02;;;;;;;6.33;4.93;;;;;;;;;;5071689;28;20269;-58